sensor_id;sensor_type;location;lat;lon;timestamp;P1;durP1;ratioP1;P2;durP2;ratioP2
18695;SDS011;22617;43.690;27.956;2023-02-13T00:00:53;4.80;;;2.80;;
18695;SDS011;22617;43.690;27.956;2023-02-13T00:05:59;5.13;;;2.83;;
18695;SDS011;22617;43.690;27.956;2023-02-13T00:11:02;5.97;;;2.67;;
18695;SDS011;22617;43.690;27.956;2023-02-13T00:16:06;4.50;;;2.70;;
18695;SDS011;22617;43.690;27.956;2023-02-13T00:21:14;4.87;;;2.83;;
18695;SDS011;22617;43.690;27.956;2023-02-13T00:26:17;6.77;;;3.03;;
18695;SDS011;22617;43.690;27.956;2023-02-13T00:31:22;6.60;;;2.90;;
18695;SDS011;22617;43.690;27.956;2023-02-13T00:36:27;5.47;;;3.00;;
18695;SDS011;22617;43.690;27.956;2023-02-13T00:41:30;5.30;;;3.03;;
18695;SDS011;22617;43.690;27.956;2023-02-13T00:46:34;8.27;;;3.43;;
18695;SDS011;22617;43.690;27.956;2023-02-13T00:51:40;5.13;;;3.23;;
18695;SDS011;22617;43.690;27.956;2023-02-13T00:56:44;6.73;;;3.47;;
18695;SDS011;22617;43.690;27.956;2023-02-13T01:01:47;6.43;;;3.30;;
18695;SDS011;22617;43.690;27.956;2023-02-13T01:06:52;5.77;;;3.00;;
18695;SDS011;22617;43.690;27.956;2023-02-13T01:11:56;6.43;;;3.43;;
18695;SDS011;22617;43.690;27.956;2023-02-13T01:17:00;5.67;;;3.10;;
18695;SDS011;22617;43.690;27.956;2023-02-13T01:22:05;5.47;;;3.07;;
18695;SDS011;22617;43.690;27.956;2023-02-13T01:27:09;6.23;;;3.00;;
18695;SDS011;22617;43.690;27.956;2023-02-13T01:32:14;7.03;;;3.40;;
18695;SDS011;22617;43.690;27.956;2023-02-13T01:37:20;6.93;;;3.50;;
18695;SDS011;22617;43.690;27.956;2023-02-13T01:42:26;5.67;;;3.10;;
18695;SDS011;22617;43.690;27.956;2023-02-13T01:47:34;5.87;;;3.13;;
18695;SDS011;22617;43.690;27.956;2023-02-13T01:52:44;6.80;;;3.60;;
18695;SDS011;22617;43.690;27.956;2023-02-13T01:57:51;7.20;;;3.50;;
18695;SDS011;22617;43.690;27.956;2023-02-13T02:03:00;6.53;;;3.57;;
18695;SDS011;22617;43.690;27.956;2023-02-13T02:08:10;6.73;;;3.57;;
18695;SDS011;22617;43.690;27.956;2023-02-13T02:13:16;8.27;;;3.53;;
18695;SDS011;22617;43.690;27.956;2023-02-13T02:18:22;8.70;;;3.67;;
18695;SDS011;22617;43.690;27.956;2023-02-13T02:29:04;5.73;;;3.07;;
18695;SDS011;22617;43.690;27.956;2023-02-13T02:34:26;6.23;;;3.20;;
18695;SDS011;22617;43.690;27.956;2023-02-13T02:39:42;7.17;;;3.63;;
18695;SDS011;22617;43.690;27.956;2023-02-13T02:44:54;10.40;;;4.30;;
18695;SDS011;22617;43.690;27.956;2023-02-13T02:50:12;7.30;;;3.83;;
18695;SDS011;22617;43.690;27.956;2023-02-13T02:55:29;6.00;;;3.20;;
18695;SDS011;22617;43.690;27.956;2023-02-13T03:00:39;6.50;;;3.30;;
18695;SDS011;22617;43.690;27.956;2023-02-13T03:06:06;8.40;;;3.30;;
18695;SDS011;22617;43.690;27.956;2023-02-13T03:11:14;9.03;;;4.10;;
18695;SDS011;22617;43.690;27.956;2023-02-13T03:16:37;6.63;;;3.37;;
18695;SDS011;22617;43.690;27.956;2023-02-13T03:22:01;5.23;;;3.00;;
18695;SDS011;22617;43.690;27.956;2023-02-13T03:27:23;6.50;;;3.13;;
18695;SDS011;22617;43.690;27.956;2023-02-13T03:32:56;7.27;;;3.23;;
18695;SDS011;22617;43.690;27.956;2023-02-13T03:38:09;5.63;;;3.20;;
18695;SDS011;22617;43.690;27.956;2023-02-13T03:43:15;6.97;;;3.27;;
18695;SDS011;22617;43.690;27.956;2023-02-13T03:48:22;6.70;;;3.30;;
18695;SDS011;22617;43.690;27.956;2023-02-13T03:53:48;5.60;;;3.20;;
18695;SDS011;22617;43.690;27.956;2023-02-13T03:58:56;7.20;;;2.93;;
18695;SDS011;22617;43.690;27.956;2023-02-13T04:04:20;6.20;;;2.97;;
18695;SDS011;22617;43.690;27.956;2023-02-13T04:09:29;5.90;;;3.30;;
18695;SDS011;22617;43.690;27.956;2023-02-13T04:14:37;7.03;;;3.30;;
18695;SDS011;22617;43.690;27.956;2023-02-13T04:19:46;7.50;;;3.07;;
18695;SDS011;22617;43.690;27.956;2023-02-13T04:24:51;7.93;;;3.50;;
18695;SDS011;22617;43.690;27.956;2023-02-13T04:29:54;6.77;;;3.47;;
18695;SDS011;22617;43.690;27.956;2023-02-13T04:34:58;6.27;;;3.20;;
18695;SDS011;22617;43.690;27.956;2023-02-13T04:40:05;5.87;;;3.10;;
18695;SDS011;22617;43.690;27.956;2023-02-13T04:45:09;5.10;;;2.77;;
18695;SDS011;22617;43.690;27.956;2023-02-13T04:50:12;5.47;;;2.90;;
18695;SDS011;22617;43.690;27.956;2023-02-13T04:55:17;5.63;;;3.00;;
18695;SDS011;22617;43.690;27.956;2023-02-13T05:00:21;5.10;;;2.93;;
18695;SDS011;22617;43.690;27.956;2023-02-13T05:05:26;6.90;;;3.00;;
18695;SDS011;22617;43.690;27.956;2023-02-13T05:10:31;6.30;;;3.37;;
18695;SDS011;22617;43.690;27.956;2023-02-13T05:15:35;6.87;;;3.30;;
18695;SDS011;22617;43.690;27.956;2023-02-13T05:20:42;6.40;;;3.33;;
18695;SDS011;22617;43.690;27.956;2023-02-13T05:25:47;8.67;;;3.90;;
18695;SDS011;22617;43.690;27.956;2023-02-13T05:30:52;6.80;;;3.40;;
18695;SDS011;22617;43.690;27.956;2023-02-13T05:35:56;6.97;;;3.27;;
18695;SDS011;22617;43.690;27.956;2023-02-13T05:41:01;7.07;;;3.77;;
18695;SDS011;22617;43.690;27.956;2023-02-13T05:46:06;6.43;;;3.30;;
18695;SDS011;22617;43.690;27.956;2023-02-13T05:51:10;7.73;;;3.57;;
18695;SDS011;22617;43.690;27.956;2023-02-13T05:56:15;7.20;;;3.90;;
18695;SDS011;22617;43.690;27.956;2023-02-13T06:01:19;8.10;;;4.33;;
18695;SDS011;22617;43.690;27.956;2023-02-13T06:06:23;6.00;;;3.30;;
18695;SDS011;22617;43.690;27.956;2023-02-13T06:11:28;9.10;;;4.00;;
18695;SDS011;22617;43.690;27.956;2023-02-13T06:16:32;11.53;;;4.37;;
18695;SDS011;22617;43.690;27.956;2023-02-13T06:21:36;8.63;;;4.47;;
18695;SDS011;22617;43.690;27.956;2023-02-13T06:26:41;12.67;;;4.70;;
18695;SDS011;22617;43.690;27.956;2023-02-13T06:31:44;9.47;;;4.43;;
18695;SDS011;22617;43.690;27.956;2023-02-13T06:36:48;9.23;;;4.10;;
18695;SDS011;22617;43.690;27.956;2023-02-13T06:41:53;13.10;;;4.47;;
18695;SDS011;22617;43.690;27.956;2023-02-13T06:46:56;9.57;;;4.60;;
18695;SDS011;22617;43.690;27.956;2023-02-13T06:52:00;13.10;;;5.17;;
18695;SDS011;22617;43.690;27.956;2023-02-13T06:57:05;9.70;;;4.47;;
18695;SDS011;22617;43.690;27.956;2023-02-13T07:02:09;9.70;;;4.47;;
18695;SDS011;22617;43.690;27.956;2023-02-13T07:07:13;9.57;;;4.53;;
18695;SDS011;22617;43.690;27.956;2023-02-13T07:12:17;9.33;;;4.47;;
18695;SDS011;22617;43.690;27.956;2023-02-13T07:17:21;8.67;;;4.30;;
18695;SDS011;22617;43.690;27.956;2023-02-13T07:22:26;10.43;;;4.30;;
18695;SDS011;22617;43.690;27.956;2023-02-13T07:27:31;8.10;;;4.00;;
18695;SDS011;22617;43.690;27.956;2023-02-13T07:32:35;8.47;;;4.33;;
18695;SDS011;22617;43.690;27.956;2023-02-13T07:37:38;8.23;;;4.43;;
18695;SDS011;22617;43.690;27.956;2023-02-13T07:42:43;8.83;;;4.47;;
18695;SDS011;22617;43.690;27.956;2023-02-13T07:47:47;10.27;;;4.27;;
18695;SDS011;22617;43.690;27.956;2023-02-13T07:52:54;7.63;;;3.77;;
18695;SDS011;22617;43.690;27.956;2023-02-13T07:58:00;11.37;;;4.20;;
18695;SDS011;22617;43.690;27.956;2023-02-13T08:03:03;8.30;;;4.37;;
18695;SDS011;22617;43.690;27.956;2023-02-13T08:08:07;9.17;;;4.40;;
18695;SDS011;22617;43.690;27.956;2023-02-13T08:13:12;8.50;;;3.97;;
18695;SDS011;22617;43.690;27.956;2023-02-13T08:18:17;9.07;;;3.93;;
18695;SDS011;22617;43.690;27.956;2023-02-13T08:23:21;8.63;;;4.33;;
18695;SDS011;22617;43.690;27.956;2023-02-13T08:28:26;8.47;;;4.20;;
18695;SDS011;22617;43.690;27.956;2023-02-13T08:33:30;10.60;;;4.13;;
18695;SDS011;22617;43.690;27.956;2023-02-13T08:38:33;8.10;;;4.20;;
18695;SDS011;22617;43.690;27.956;2023-02-13T08:43:38;6.97;;;3.80;;
18695;SDS011;22617;43.690;27.956;2023-02-13T08:48:43;6.03;;;3.63;;
18695;SDS011;22617;43.690;27.956;2023-02-13T08:53:46;5.97;;;3.77;;
18695;SDS011;22617;43.690;27.956;2023-02-13T08:58:51;7.47;;;3.87;;
18695;SDS011;22617;43.690;27.956;2023-02-13T09:03:55;9.67;;;3.90;;
18695;SDS011;22617;43.690;27.956;2023-02-13T09:08:59;9.13;;;3.27;;
18695;SDS011;22617;43.690;27.956;2023-02-13T09:14:04;7.27;;;3.80;;
18695;SDS011;22617;43.690;27.956;2023-02-13T09:19:07;9.90;;;4.03;;
18695;SDS011;22617;43.690;27.956;2023-02-13T09:24:10;7.17;;;3.37;;
18695;SDS011;22617;43.690;27.956;2023-02-13T09:29:15;6.83;;;3.50;;
18695;SDS011;22617;43.690;27.956;2023-02-13T09:34:19;6.40;;;3.03;;
18695;SDS011;22617;43.690;27.956;2023-02-13T09:39:22;6.33;;;3.70;;
18695;SDS011;22617;43.690;27.956;2023-02-13T09:44:28;7.37;;;3.60;;
18695;SDS011;22617;43.690;27.956;2023-02-13T09:49:39;7.93;;;3.73;;
18695;SDS011;22617;43.690;27.956;2023-02-13T09:54:45;9.17;;;4.63;;
18695;SDS011;22617;43.690;27.956;2023-02-13T09:59:55;6.63;;;4.10;;
18695;SDS011;22617;43.690;27.956;2023-02-13T10:05:09;7.30;;;3.53;;
18695;SDS011;22617;43.690;27.956;2023-02-13T10:10:26;6.07;;;2.73;;
18695;SDS011;22617;43.690;27.956;2023-02-13T10:15:38;8.53;;;3.23;;
18695;SDS011;22617;43.690;27.956;2023-02-13T10:20:46;5.73;;;2.77;;
18695;SDS011;22617;43.690;27.956;2023-02-13T10:25:54;5.07;;;3.07;;
18695;SDS011;22617;43.690;27.956;2023-02-13T10:31:03;7.10;;;3.63;;
18695;SDS011;22617;43.690;27.956;2023-02-13T10:36:11;9.70;;;5.33;;
18695;SDS011;22617;43.690;27.956;2023-02-13T10:41:24;48.53;;;16.90;;
18695;SDS011;22617;43.690;27.956;2023-02-13T10:46:41;12.43;;;5.97;;
18695;SDS011;22617;43.690;27.956;2023-02-13T10:51:54;10.40;;;5.60;;
18695;SDS011;22617;43.690;27.956;2023-02-13T10:57:08;12.07;;;5.93;;
18695;SDS011;22617;43.690;27.956;2023-02-13T11:02:21;9.80;;;5.33;;
18695;SDS011;22617;43.690;27.956;2023-02-13T11:07:26;11.47;;;6.40;;
18695;SDS011;22617;43.690;27.956;2023-02-13T11:12:32;9.63;;;5.67;;
18695;SDS011;22617;43.690;27.956;2023-02-13T11:17:38;11.20;;;5.90;;
18695;SDS011;22617;43.690;27.956;2023-02-13T11:22:44;11.50;;;5.77;;
18695;SDS011;22617;43.690;27.956;2023-02-13T11:27:49;14.40;;;6.87;;
18695;SDS011;22617;43.690;27.956;2023-02-13T11:32:58;14.60;;;7.07;;
18695;SDS011;22617;43.690;27.956;2023-02-13T11:38:17;13.73;;;6.70;;
18695;SDS011;22617;43.690;27.956;2023-02-13T11:43:26;12.23;;;6.30;;
18695;SDS011;22617;43.690;27.956;2023-02-13T11:48:36;13.77;;;6.40;;
18695;SDS011;22617;43.690;27.956;2023-02-13T11:53:40;11.20;;;6.23;;
18695;SDS011;22617;43.690;27.956;2023-02-13T11:58:44;11.90;;;7.10;;
18695;SDS011;22617;43.690;27.956;2023-02-13T12:03:57;14.27;;;6.67;;
18695;SDS011;22617;43.690;27.956;2023-02-13T12:09:10;15.10;;;7.43;;
18695;SDS011;22617;43.690;27.956;2023-02-13T12:14:17;14.53;;;7.43;;
18695;SDS011;22617;43.690;27.956;2023-02-13T12:19:24;15.10;;;7.40;;
18695;SDS011;22617;43.690;27.956;2023-02-13T12:24:39;15.60;;;7.73;;
18695;SDS011;22617;43.690;27.956;2023-02-13T12:30:07;16.10;;;7.97;;
18695;SDS011;22617;43.690;27.956;2023-02-13T12:35:37;16.83;;;9.00;;
18695;SDS011;22617;43.690;27.956;2023-02-13T12:40:56;15.23;;;7.70;;
18695;SDS011;22617;43.690;27.956;2023-02-13T12:46:13;14.07;;;7.73;;
18695;SDS011;22617;43.690;27.956;2023-02-13T12:51:27;14.17;;;7.57;;
18695;SDS011;22617;43.690;27.956;2023-02-13T12:56:55;16.97;;;9.17;;
18695;SDS011;22617;43.690;27.956;2023-02-13T13:02:17;15.07;;;8.50;;
18695;SDS011;22617;43.690;27.956;2023-02-13T13:07:49;16.93;;;8.87;;
18695;SDS011;22617;43.690;27.956;2023-02-13T13:13:03;16.73;;;8.47;;
18695;SDS011;22617;43.690;27.956;2023-02-13T13:18:16;16.53;;;8.63;;
18695;SDS011;22617;43.690;27.956;2023-02-13T13:23:32;16.70;;;8.70;;
18695;SDS011;22617;43.690;27.956;2023-02-13T13:28:40;17.00;;;8.57;;
18695;SDS011;22617;43.690;27.956;2023-02-13T13:33:46;17.47;;;8.70;;
18695;SDS011;22617;43.690;27.956;2023-02-13T13:38:52;14.80;;;8.27;;
18695;SDS011;22617;43.690;27.956;2023-02-13T13:49:37;17.27;;;8.80;;
18695;SDS011;22617;43.690;27.956;2023-02-13T13:54:54;18.57;;;9.87;;
18695;SDS011;22617;43.690;27.956;2023-02-13T14:05:28;18.10;;;9.50;;
18695;SDS011;22617;43.690;27.956;2023-02-13T14:16:08;18.37;;;9.27;;
18695;SDS011;22617;43.690;27.956;2023-02-13T14:21:20;17.90;;;9.30;;
18695;SDS011;22617;43.690;27.956;2023-02-13T14:26:34;18.60;;;10.00;;
18695;SDS011;22617;43.690;27.956;2023-02-13T14:31:41;19.60;;;9.13;;
18695;SDS011;22617;43.690;27.956;2023-02-13T14:36:59;19.07;;;9.47;;
18695;SDS011;22617;43.690;27.956;2023-02-13T14:42:21;16.80;;;9.10;;
18695;SDS011;22617;43.690;27.956;2023-02-13T14:47:29;17.07;;;9.00;;
18695;SDS011;22617;43.690;27.956;2023-02-13T14:52:37;18.03;;;8.90;;
18695;SDS011;22617;43.690;27.956;2023-02-13T14:57:46;19.77;;;9.63;;
18695;SDS011;22617;43.690;27.956;2023-02-13T15:02:55;16.70;;;8.73;;
18695;SDS011;22617;43.690;27.956;2023-02-13T15:08:05;17.37;;;9.10;;
18695;SDS011;22617;43.690;27.956;2023-02-13T15:13:19;18.23;;;8.77;;
18695;SDS011;22617;43.690;27.956;2023-02-13T15:18:24;16.50;;;8.70;;
18695;SDS011;22617;43.690;27.956;2023-02-13T15:23:30;18.03;;;8.80;;
18695;SDS011;22617;43.690;27.956;2023-02-13T15:28:36;17.60;;;7.97;;
18695;SDS011;22617;43.690;27.956;2023-02-13T15:33:42;15.90;;;8.20;;
18695;SDS011;22617;43.690;27.956;2023-02-13T15:38:47;17.33;;;8.57;;
18695;SDS011;22617;43.690;27.956;2023-02-13T15:43:55;15.63;;;7.23;;
18695;SDS011;22617;43.690;27.956;2023-02-13T15:49:00;19.03;;;7.83;;
18695;SDS011;22617;43.690;27.956;2023-02-13T15:54:20;14.60;;;7.40;;
18695;SDS011;22617;43.690;27.956;2023-02-13T15:59:29;15.93;;;7.30;;
18695;SDS011;22617;43.690;27.956;2023-02-13T16:04:35;17.27;;;8.17;;
18695;SDS011;22617;43.690;27.956;2023-02-13T16:09:39;16.77;;;7.67;;
18695;SDS011;22617;43.690;27.956;2023-02-13T16:14:46;17.50;;;8.83;;
18695;SDS011;22617;43.690;27.956;2023-02-13T16:19:55;16.30;;;8.20;;
18695;SDS011;22617;43.690;27.956;2023-02-13T16:25:11;17.23;;;8.40;;
18695;SDS011;22617;43.690;27.956;2023-02-13T16:35:43;17.77;;;8.57;;
18695;SDS011;22617;43.690;27.956;2023-02-13T16:40:49;24.80;;;11.37;;
18695;SDS011;22617;43.690;27.956;2023-02-13T16:45:54;17.67;;;9.00;;
18695;SDS011;22617;43.690;27.956;2023-02-13T16:51:12;22.90;;;11.57;;
18695;SDS011;22617;43.690;27.956;2023-02-13T16:56:17;22.70;;;11.50;;
18695;SDS011;22617;43.690;27.956;2023-02-13T17:01:22;24.37;;;11.87;;
18695;SDS011;22617;43.690;27.956;2023-02-13T17:06:26;33.77;;;13.73;;
18695;SDS011;22617;43.690;27.956;2023-02-13T17:11:36;51.60;;;18.23;;
18695;SDS011;22617;43.690;27.956;2023-02-13T17:16:42;32.17;;;12.93;;
18695;SDS011;22617;43.690;27.956;2023-02-13T17:21:45;31.10;;;11.53;;
18695;SDS011;22617;43.690;27.956;2023-02-13T17:26:49;29.77;;;11.97;;
18695;SDS011;22617;43.690;27.956;2023-02-13T17:31:55;39.27;;;14.57;;
18695;SDS011;22617;43.690;27.956;2023-02-13T17:36:59;31.37;;;12.20;;
18695;SDS011;22617;43.690;27.956;2023-02-13T17:42:03;36.13;;;13.53;;
18695;SDS011;22617;43.690;27.956;2023-02-13T17:47:08;31.07;;;13.40;;
18695;SDS011;22617;43.690;27.956;2023-02-13T17:52:14;26.10;;;10.97;;
18695;SDS011;22617;43.690;27.956;2023-02-13T17:57:19;26.20;;;10.13;;
18695;SDS011;22617;43.690;27.956;2023-02-13T18:02:25;25.83;;;9.80;;
18695;SDS011;22617;43.690;27.956;2023-02-13T18:07:30;25.27;;;10.00;;
18695;SDS011;22617;43.690;27.956;2023-02-13T18:12:35;22.67;;;10.40;;
18695;SDS011;22617;43.690;27.956;2023-02-13T18:17:42;24.93;;;10.93;;
18695;SDS011;22617;43.690;27.956;2023-02-13T18:22:45;27.50;;;12.03;;
18695;SDS011;22617;43.690;27.956;2023-02-13T18:27:51;30.20;;;10.83;;
18695;SDS011;22617;43.690;27.956;2023-02-13T18:32:57;27.13;;;12.17;;
18695;SDS011;22617;43.690;27.956;2023-02-13T18:38:05;32.60;;;12.83;;
18695;SDS011;22617;43.690;27.956;2023-02-13T18:43:09;30.00;;;11.23;;
18695;SDS011;22617;43.690;27.956;2023-02-13T18:48:18;20.57;;;9.43;;
18695;SDS011;22617;43.690;27.956;2023-02-13T18:53:22;18.27;;;8.20;;
18695;SDS011;22617;43.690;27.956;2023-02-13T18:58:26;16.23;;;7.47;;
18695;SDS011;22617;43.690;27.956;2023-02-13T19:03:31;17.77;;;8.87;;
18695;SDS011;22617;43.690;27.956;2023-02-13T19:08:34;21.53;;;9.60;;
18695;SDS011;22617;43.690;27.956;2023-02-13T19:13:38;20.07;;;8.77;;
18695;SDS011;22617;43.690;27.956;2023-02-13T19:18:46;21.30;;;9.07;;
18695;SDS011;22617;43.690;27.956;2023-02-13T19:23:52;21.30;;;9.23;;
18695;SDS011;22617;43.690;27.956;2023-02-13T19:28:57;22.80;;;9.20;;
18695;SDS011;22617;43.690;27.956;2023-02-13T19:34:02;25.57;;;11.17;;
18695;SDS011;22617;43.690;27.956;2023-02-13T19:39:06;21.20;;;9.57;;
18695;SDS011;22617;43.690;27.956;2023-02-13T19:44:10;24.13;;;10.73;;
18695;SDS011;22617;43.690;27.956;2023-02-13T19:49:15;27.80;;;12.17;;
18695;SDS011;22617;43.690;27.956;2023-02-13T19:54:19;35.17;;;15.77;;
18695;SDS011;22617;43.690;27.956;2023-02-13T19:59:23;45.23;;;18.57;;
18695;SDS011;22617;43.690;27.956;2023-02-13T20:04:28;44.17;;;19.03;;
18695;SDS011;22617;43.690;27.956;2023-02-13T20:09:32;44.10;;;19.47;;
18695;SDS011;22617;43.690;27.956;2023-02-13T20:14:38;48.27;;;20.40;;
18695;SDS011;22617;43.690;27.956;2023-02-13T20:19:43;46.53;;;20.57;;
18695;SDS011;22617;43.690;27.956;2023-02-13T20:24:48;49.67;;;21.57;;
18695;SDS011;22617;43.690;27.956;2023-02-13T20:29:51;45.97;;;20.73;;
18695;SDS011;22617;43.690;27.956;2023-02-13T20:35:09;57.57;;;22.33;;
18695;SDS011;22617;43.690;27.956;2023-02-13T20:40:12;52.27;;;23.50;;
18695;SDS011;22617;43.690;27.956;2023-02-13T20:45:16;59.17;;;24.40;;
18695;SDS011;22617;43.690;27.956;2023-02-13T20:50:21;52.83;;;23.33;;
18695;SDS011;22617;43.690;27.956;2023-02-13T20:55:25;57.57;;;24.03;;
18695;SDS011;22617;43.690;27.956;2023-02-13T21:00:30;54.23;;;24.47;;
18695;SDS011;22617;43.690;27.956;2023-02-13T21:05:35;56.67;;;24.13;;
18695;SDS011;22617;43.690;27.956;2023-02-13T21:10:39;67.87;;;28.27;;
18695;SDS011;22617;43.690;27.956;2023-02-13T21:15:42;64.20;;;28.10;;
18695;SDS011;22617;43.690;27.956;2023-02-13T21:20:51;66.90;;;29.07;;
18695;SDS011;22617;43.690;27.956;2023-02-13T21:25:59;68.77;;;28.63;;
18695;SDS011;22617;43.690;27.956;2023-02-13T21:31:06;67.50;;;28.57;;
18695;SDS011;22617;43.690;27.956;2023-02-13T21:36:13;63.70;;;27.23;;
18695;SDS011;22617;43.690;27.956;2023-02-13T21:41:17;58.97;;;25.70;;
18695;SDS011;22617;43.690;27.956;2023-02-13T21:46:22;51.63;;;23.77;;
18695;SDS011;22617;43.690;27.956;2023-02-13T21:51:28;63.07;;;26.07;;
18695;SDS011;22617;43.690;27.956;2023-02-13T21:56:35;68.37;;;27.63;;
18695;SDS011;22617;43.690;27.956;2023-02-13T22:01:40;70.50;;;28.77;;
18695;SDS011;22617;43.690;27.956;2023-02-13T22:06:48;74.10;;;29.47;;
18695;SDS011;22617;43.690;27.956;2023-02-13T22:11:53;79.83;;;31.37;;
18695;SDS011;22617;43.690;27.956;2023-02-13T22:16:57;76.70;;;31.90;;
18695;SDS011;22617;43.690;27.956;2023-02-13T22:22:02;81.67;;;32.73;;
18695;SDS011;22617;43.690;27.956;2023-02-13T22:27:05;78.83;;;33.77;;
18695;SDS011;22617;43.690;27.956;2023-02-13T22:32:09;83.13;;;34.10;;
18695;SDS011;22617;43.690;27.956;2023-02-13T22:37:14;87.23;;;33.93;;
18695;SDS011;22617;43.690;27.956;2023-02-13T22:42:17;88.60;;;35.50;;
18695;SDS011;22617;43.690;27.956;2023-02-13T22:47:21;84.63;;;34.63;;
18695;SDS011;22617;43.690;27.956;2023-02-13T22:52:26;83.40;;;34.97;;
18695;SDS011;22617;43.690;27.956;2023-02-13T22:57:30;81.70;;;33.33;;
18695;SDS011;22617;43.690;27.956;2023-02-13T23:02:33;86.57;;;34.47;;
18695;SDS011;22617;43.690;27.956;2023-02-13T23:07:39;85.63;;;35.10;;
18695;SDS011;22617;43.690;27.956;2023-02-13T23:12:42;91.43;;;36.13;;
18695;SDS011;22617;43.690;27.956;2023-02-13T23:17:46;92.53;;;36.43;;
18695;SDS011;22617;43.690;27.956;2023-02-13T23:23:09;90.27;;;37.13;;
18695;SDS011;22617;43.690;27.956;2023-02-13T23:28:13;91.67;;;36.93;;
18695;SDS011;22617;43.690;27.956;2023-02-13T23:33:16;83.83;;;35.80;;
18695;SDS011;22617;43.690;27.956;2023-02-13T23:38:21;88.43;;;36.00;;
18695;SDS011;22617;43.690;27.956;2023-02-13T23:43:25;83.20;;;34.33;;
18695;SDS011;22617;43.690;27.956;2023-02-13T23:48:28;93.17;;;37.30;;
18695;SDS011;22617;43.690;27.956;2023-02-13T23:53:34;91.00;;;37.40;;
18695;SDS011;22617;43.690;27.956;2023-02-13T23:58:38;88.40;;;35.20;;
